Time;durP1;ratioP1;P1;durP2;ratioP2;P2;SDS_P1;SDS_P2;PMS_P1;PMS_P2;Temp;Humidity;BMP_temperature;BMP_pressure;BME280_temperature;BME280_humidity;BME280_pressure;Samples;Min_cycle;Max_cycle;Signal;HPM_P1;HPM_P2
2024/02/03 00:02:21;;;;;;;6.40;4.72;;;;;;;3.36;72.29;99877.00;4998693;28;102748;-74
2024/02/03 00:04:49;;;;;;;9.45;4.47;;;;;;;3.38;72.61;99872.53;4984076;28;103095;-75
2024/02/03 00:07:17;;;;;;;5.88;4.00;;;;;;;3.39;72.41;99868.97;5002737;28;104053;-74
2024/02/03 00:09:47;;;;;;;5.18;2.92;;;;;;;3.45;72.07;99868.59;5010331;28;103425;-75
2024/02/03 00:12:16;;;;;;;10.35;5.60;;;;;;;3.42;71.35;99860.06;5007213;28;102782;-75
2024/02/03 00:14:46;;;;;;;10.23;5.43;;;;;;;3.12;73.96;99861.84;4985621;28;104179;-75
2024/02/03 00:17:14;;;;;;;9.73;6.50;;;;;;;3.11;74.69;99860.16;5004137;28;103746;-75
2024/02/03 00:19:42;;;;;;;12.43;7.15;;;;;;;3.24;73.36;99857.66;4998367;28;103264;-75
2024/02/03 00:22:11;;;;;;;8.18;5.45;;;;;;;3.20;73.35;99852.72;5008012;28;103678;-75
2024/02/03 00:24:39;;;;;;;7.15;5.13;;;;;;;3.25;73.57;99861.09;4992024;28;104176;-75
2024/02/03 00:27:07;;;;;;;8.15;4.88;;;;;;;3.31;73.71;99850.25;4984551;28;103448;-75
2024/02/03 00:29:36;;;;;;;7.45;4.25;;;;;;;3.32;73.33;99863.25;4991303;28;104195;-75
2024/02/03 00:32:08;;;;;;;10.07;6.47;;;;;;;3.24;72.60;99859.44;5013973;28;102729;-75
2024/02/03 00:34:36;;;;;;;9.32;6.30;;;;;;;3.18;73.39;99860.63;5008211;28;103808;-75
2024/02/03 00:37:05;;;;;;;9.38;6.10;;;;;;;3.10;73.13;99852.41;5007299;28;103731;-75
2024/02/03 00:39:33;;;;;;;8.23;4.93;;;;;;;3.02;73.81;99860.72;4987792;28;103854;-75
2024/02/03 00:42:01;;;;;;;8.43;5.68;;;;;;;2.98;73.71;99867.91;5005532;28;102710;-76
2024/02/03 00:44:29;;;;;;;6.75;4.13;;;;;;;2.94;74.01;99862.94;4976309;28;102725;-76
2024/02/03 00:46:57;;;;;;;5.93;3.80;;;;;;;3.04;74.17;99874.56;4985660;28;104325;-75
2024/02/03 00:49:26;;;;;;;6.65;4.38;;;;;;;3.07;73.24;99871.75;5006436;28;103347;-75
2024/02/03 00:51:55;;;;;;;7.65;4.85;;;;;;;2.87;73.76;99870.31;4983121;28;102748;-75
2024/02/03 00:54:23;;;;;;;10.50;5.95;;;;;;;2.84;74.26;99869.66;4983615;28;102752;-75
2024/02/03 00:56:51;;;;;;;12.57;5.88;;;;;;;2.58;75.38;99866.78;4993062;28;104356;-75
2024/02/03 00:59:19;;;;;;;8.15;5.18;;;;;;;2.70;74.46;99868.69;4998808;28;103069;-75
2024/02/03 01:01:47;;;;;;;6.97;4.70;;;;;;;2.49;74.98;99869.00;4992049;28;102765;-76
2024/02/03 01:04:15;;;;;;;5.90;4.13;;;;;;;2.60;74.66;99873.59;4989678;28;102951;-75
2024/02/03 01:06:45;;;;;;;6.32;3.80;;;;;;;2.77;74.66;99861.31;5005018;28;103348;-76
2024/02/03 01:09:16;;;;;;;8.32;4.65;;;;;;;2.86;74.55;99873.03;4990388;28;104447;-76
2024/02/03 01:11:45;;;;;;;7.78;4.28;;;;;;;2.84;73.51;99872.28;5000229;28;102682;-76
2024/02/03 01:14:13;;;;;;;6.70;3.55;;;;;;;2.81;73.17;99871.50;4985775;28;102821;-75
2024/02/03 01:16:43;;;;;;;6.32;4.88;;;;;;;2.70;72.71;99865.22;5006137;28;104065;-76
2024/02/03 01:19:12;;;;;;;6.80;4.65;;;;;;;2.45;74.08;99864.88;4999286;28;103233;-75
2024/02/03 01:21:41;;;;;;;5.88;3.97;;;;;;;2.59;74.45;99869.28;4997496;28;102678;-73
2024/02/03 01:24:10;;;;;;;5.47;3.30;;;;;;;2.44;74.14;99871.03;5004359;28;104108;-76
2024/02/03 01:26:38;;;;;;;5.60;3.83;;;;;;;2.55;74.36;99883.47;5005810;28;103148;-75
2024/02/03 01:29:06;;;;;;;7.38;4.55;;;;;;;2.31;73.45;99883.94;4990360;28;104247;-76
2024/02/03 01:31:34;;;;;;;7.88;4.78;;;;;;;2.22;74.90;99881.00;5001868;28;103710;-73
2024/02/03 01:34:03;;;;;;;7.78;4.78;;;;;;;2.27;74.94;99889.44;4982419;28;104444;-76
2024/02/03 01:36:31;;;;;;;5.63;3.83;;;;;;;2.41;74.47;99886.91;5003181;28;104001;-74
2024/02/03 01:38:59;;;;;;;5.35;3.50;;;;;;;2.48;74.56;99875.13;5007075;28;103338;-73
2024/02/03 01:41:28;;;;;;;6.60;3.90;;;;;;;2.56;74.17;99873.88;4991612;28;103081;-77
2024/02/03 01:43:56;;;;;;;4.82;3.13;;;;;;;2.54;73.70;99870.50;4984958;28;103131;-73
2024/02/03 01:46:25;;;;;;;5.47;3.35;;;;;;;2.38;74.27;99865.31;5007034;28;103180;-73
2024/02/03 01:48:53;;;;;;;6.90;3.72;;;;;;;2.46;74.27;99874.41;5001008;28;103273;-73
2024/02/03 01:51:24;;;;;;;6.28;4.65;;;;;;;1.99;75.06;99862.19;4989026;28;102867;-73
2024/02/03 01:53:53;;;;;;;6.40;3.53;;;;;;;2.18;74.99;99869.06;4991855;28;102681;-74
2024/02/03 01:56:23;;;;;;;5.05;3.60;;;;;;;2.21;74.42;99858.41;4980557;28;103936;-75
2024/02/03 01:58:52;;;;;;;6.43;3.97;;;;;;;2.15;74.67;99868.28;5001812;28;103276;-74
2024/02/03 02:01:21;;;;;;;5.07;3.38;;;;;;;2.16;75.01;99869.09;4990785;27;102810;-74
2024/02/03 02:03:50;;;;;;;4.55;3.00;;;;;;;2.30;74.66;99865.72;5010522;28;103026;-74
2024/02/03 02:06:18;;;;;;;10.43;6.75;;;;;;;1.95;74.83;99860.69;4998743;28;103378;-74
2024/02/03 02:08:49;;;;;;;6.63;4.78;;;;;;;2.02;75.10;99875.13;4981510;28;104183;-74
2024/02/03 02:11:19;;;;;;;5.97;4.00;;;;;;;2.00;75.40;99866.50;5004628;28;103217;-74
2024/02/03 02:13:47;;;;;;;6.07;4.10;;;;;;;2.14;75.07;99868.38;4986488;28;103312;-74
2024/02/03 02:16:17;;;;;;;8.13;3.67;;;;;;;2.07;74.00;99862.66;4985010;27;103984;-75
2024/02/03 02:18:45;;;;;;;4.57;3.10;;;;;;;2.13;74.38;99864.06;4988155;28;104138;-74
2024/02/03 02:21:15;;;;;;;5.38;3.30;;;;;;;2.11;74.47;99869.38;5003627;28;102946;-75
2024/02/03 02:23:43;;;;;;;6.07;3.80;;;;;;;2.20;74.01;99861.94;5000609;28;103827;-75
2024/02/03 02:26:11;;;;;;;5.05;3.25;;;;;;;2.19;73.78;99857.63;5010197;28;103289;-74
2024/02/03 02:28:39;;;;;;;7.13;4.57;;;;;;;2.23;73.84;99851.34;4988910;28;104339;-74
2024/02/03 02:31:08;;;;;;;7.35;4.53;;;;;;;2.12;72.98;99850.16;5007364;28;103170;-74
2024/02/03 02:33:36;;;;;;;4.72;3.10;;;;;;;1.97;73.88;99851.84;5008113;28;102763;-75
2024/02/03 02:36:04;;;;;;;5.10;3.47;;;;;;;1.96;74.78;99855.38;4988292;28;104045;-74
2024/02/03 02:38:34;;;;;;;4.13;2.90;;;;;;;2.03;74.90;99849.81;4980327;28;103171;-74
2024/02/03 02:41:04;;;;;;;5.13;3.58;;;;;;;2.02;74.23;99849.00;5003336;28;104030;-74
2024/02/03 02:43:32;;;;;;;6.20;3.25;;;;;;;2.01;74.59;99846.47;4990234;28;103947;-75
2024/02/03 02:46:00;;;;;;;5.40;3.10;;;;;;;2.09;74.37;99844.25;5005359;28;103973;-74
2024/02/03 02:48:30;;;;;;;4.65;3.30;;;;;;;2.12;74.65;99844.94;5007358;28;104759;-74
2024/02/03 02:50:59;;;;;;;4.47;2.80;;;;;;;2.17;74.70;99846.44;5005357;28;102628;-74
2024/02/03 02:53:27;;;;;;;4.38;2.92;;;;;;;2.18;74.33;99840.28;5002661;28;102617;-74
2024/02/03 02:55:56;;;;;;;5.43;3.42;;;;;;;2.24;74.10;99842.53;5003529;28;103406;-74
2024/02/03 02:58:27;;;;;;;5.13;3.23;;;;;;;2.19;74.07;99849.81;4994079;28;103183;-74
2024/02/03 03:00:55;;;;;;;4.97;2.65;;;;;;;2.22;74.49;99839.19;4986669;27;103556;-74
2024/02/03 03:03:23;;;;;;;4.88;3.22;;;;;;;2.28;74.61;99839.69;4990872;28;102673;-75
2024/02/03 03:05:52;;;;;;;5.15;3.13;;;;;;;2.27;73.97;99837.16;5010094;28;104233;-75
2024/02/03 03:08:20;;;;;;;3.85;2.38;;;;;;;2.26;73.76;99843.31;5008178;28;103231;-74
2024/02/03 03:10:48;;;;;;;4.70;2.50;;;;;;;2.23;74.42;99840.88;5004472;28;102700;-74
2024/02/03 03:13:17;;;;;;;5.00;3.20;;;;;;;2.27;73.85;99842.38;5009170;28;103144;-74
2024/02/03 03:15:45;;;;;;;5.18;3.47;;;;;;;2.24;73.53;99848.63;4976380;28;103488;-74
2024/02/03 03:18:13;;;;;;;5.25;3.35;;;;;;;2.27;73.60;99839.78;4968596;28;103165;-74
2024/02/03 03:20:43;;;;;;;4.57;3.03;;;;;;;2.20;73.82;99843.66;4982893;28;102713;-74
2024/02/03 03:23:11;;;;;;;6.25;3.42;;;;;;;2.13;73.47;99849.22;5004071;28;104013;-74
2024/02/03 03:25:39;;;;;;;5.55;3.85;;;;;;;2.06;73.26;99855.72;5003095;28;103913;-74
2024/02/03 03:28:07;;;;;;;5.63;3.08;;;;;;;2.01;73.57;99851.69;4983239;28;103313;-74
2024/02/03 03:30:36;;;;;;;4.05;2.65;;;;;;;1.97;74.08;99851.00;4999859;27;103990;-74
2024/02/03 03:33:05;;;;;;;4.03;2.70;;;;;;;1.99;73.80;99854.38;4988770;28;104005;-74
2024/02/03 03:35:33;;;;;;;4.47;2.78;;;;;;;1.95;74.23;99858.09;4992142;28;103718;-74
2024/02/03 03:38:02;;;;;;;5.15;3.33;;;;;;;1.93;74.00;99849.50;5003991;28;103333;-74
2024/02/03 03:40:30;;;;;;;5.25;2.78;;;;;;;1.90;73.89;99849.66;4984159;28;102579;-74
2024/02/03 03:42:58;;;;;;;5.13;3.05;;;;;;;1.82;74.48;99837.88;5002781;28;102626;-74
2024/02/03 03:45:26;;;;;;;5.35;2.83;;;;;;;1.82;74.42;99840.47;5001785;28;103425;-74
2024/02/03 03:47:55;;;;;;;4.60;3.13;;;;;;;1.87;74.28;99834.16;5010402;28;103219;-75
2024/02/03 03:50:25;;;;;;;5.18;2.80;;;;;;;1.88;74.09;99828.00;4985589;28;102678;-74
2024/02/03 03:52:53;;;;;;;3.80;2.50;;;;;;;1.88;74.60;99830.63;5005747;28;102571;-74
2024/02/03 03:55:21;;;;;;;4.55;2.83;;;;;;;1.94;74.18;99830.25;4980989;28;103274;-75
2024/02/03 03:57:49;;;;;;;5.15;2.90;;;;;;;1.90;74.91;99840.06;4983774;28;103432;-74
2024/02/03 04:00:18;;;;;;;3.40;2.17;;;;;;;1.95;74.27;99838.03;4989199;28;102870;-75
2024/02/03 04:02:46;;;;;;;4.13;2.60;;;;;;;1.92;73.65;99843.41;5004622;28;102589;-74
2024/02/03 04:05:15;;;;;;;7.47;3.10;;;;;;;1.74;75.04;99845.28;4999651;28;103931;-75
2024/02/03 04:07:43;;;;;;;5.03;3.20;;;;;;;1.75;75.32;99852.19;5011747;28;103203;-74
2024/02/03 04:10:11;;;;;;;3.80;2.20;;;;;;;1.82;75.42;99848.31;5003886;28;102810;-75
2024/02/03 04:12:39;;;;;;;4.03;2.38;;;;;;;1.86;74.59;99853.38;5007389;28;103745;-74
2024/02/03 04:15:08;;;;;;;4.60;2.67;;;;;;;1.87;74.28;99837.59;4977915;28;103284;-74
2024/02/03 04:17:38;;;;;;;5.30;2.90;;;;;;;1.86;73.54;99854.22;4990605;28;104047;-74
2024/02/03 04:20:07;;;;;;;4.25;2.65;;;;;;;1.74;73.75;99850.50;4985868;28;102634;-74
2024/02/03 04:22:37;;;;;;;5.18;2.95;;;;;;;1.74;74.39;99849.66;4989931;28;103060;-75
2024/02/03 04:25:05;;;;;;;5.35;3.35;;;;;;;1.57;74.68;99853.19;4994634;28;103294;-74
2024/02/03 04:27:33;;;;;;;4.22;2.70;;;;;;;1.45;75.26;99865.94;5002987;28;103233;-74
2024/02/03 04:30:02;;;;;;;4.00;2.63;;;;;;;1.44;75.38;99864.28;4999811;28;102690;-74
2024/02/03 04:32:50;;;;;;;3.97;2.83;;;;;;;1.46;75.51;99866.81;4988812;28;102817;-75
2024/02/03 04:35:18;;;;;;;3.33;2.22;;;;;;;1.42;75.60;99858.28;4979634;28;102944;-74
2024/02/03 04:37:48;;;;;;;4.50;2.70;;;;;;;1.55;75.24;99855.03;4987077;28;104259;-75
2024/02/03 04:40:15;;;;;;;5.03;3.40;;;;;;;1.39;74.70;99858.47;5004480;28;102714;-75
2024/02/03 04:42:43;;;;;;;5.25;2.90;;;;;;;1.33;75.09;99858.78;4982625;28;102709;-75
2024/02/03 04:45:11;;;;;;;4.60;2.78;;;;;;;1.28;75.62;99863.38;4986588;28;103258;-74
2024/02/03 04:47:39;;;;;;;3.80;2.58;;;;;;;1.39;75.84;99871.50;4991994;28;103377;-75
2024/02/03 04:50:08;;;;;;;5.22;3.50;;;;;;;1.35;74.64;99870.00;5001179;28;102651;-75
2024/02/03 04:52:36;;;;;;;7.18;3.38;;;;;;;1.34;75.45;99873.53;4984198;28;103835;-74
2024/02/03 04:55:06;;;;;;;4.28;2.78;;;;;;;1.30;75.56;99872.00;4974863;28;102857;-75
2024/02/03 04:57:36;;;;;;;4.35;2.65;;;;;;;1.34;75.28;99863.06;4981904;28;104474;-74
2024/02/03 05:00:06;;;;;;;4.47;2.75;;;;;;;1.39;75.42;99861.06;5001274;28;102884;-74
2024/02/03 05:02:33;;;;;;;5.28;2.50;;;;;;;1.30;74.89;99858.94;4999743;28;104130;-74
2024/02/03 05:05:01;;;;;;;4.10;2.47;;;;;;;1.33;75.81;99867.44;4986112;28;102705;-74
2024/02/03 05:07:31;;;;;;;6.03;3.80;;;;;;;1.40;75.88;99870.59;4987790;28;103210;-74
2024/02/03 05:09:59;;;;;;;4.90;3.22;;;;;;;1.38;75.87;99867.22;4985104;28;103722;-74
2024/02/03 05:12:31;;;;;;;4.45;2.80;;;;;;;1.39;76.63;99865.44;5006522;28;104080;-72
2024/02/03 05:14:59;;;;;;;5.20;2.90;;;;;;;1.47;76.82;99871.13;4989055;28;103146;-73
2024/02/03 05:17:32;;;;;;;6.00;2.92;;;;;;;1.51;76.29;99874.38;5006887;28;102776;-73
2024/02/03 05:20:00;;;;;;;5.20;2.60;;;;;;;1.45;76.31;99868.56;5005997;28;103029;-74
2024/02/03 05:22:27;;;;;;;3.80;2.30;;;;;;;1.52;76.64;99870.84;5007523;28;103032;-73
2024/02/03 05:24:56;;;;;;;4.00;2.47;;;;;;;1.59;76.42;99873.06;5002739;28;102999;-73
2024/02/03 05:27:24;;;;;;;3.35;2.22;;;;;;;1.61;76.08;99875.59;4982689;28;104259;-74
2024/02/03 05:29:53;;;;;;;3.53;2.22;;;;;;;1.65;75.87;99877.09;4986027;28;104613;-73
2024/02/03 05:32:21;;;;;;;5.15;2.92;;;;;;;1.69;76.19;99873.44;4976498;28;103142;-74
2024/02/03 05:34:49;;;;;;;6.20;2.67;;;;;;;1.62;76.45;99877.28;4961891;28;103117;-74
2024/02/03 05:37:17;;;;;;;7.90;4.85;;;;;;;1.72;77.94;99867.19;5004813;28;103250;-73
2024/02/03 05:39:47;;;;;;;9.77;5.53;;;;;;;1.86;79.61;99876.88;4983094;28;102791;-74
2024/02/03 05:42:15;;;;;;;8.80;6.47;;;;;;;2.01;80.54;99876.03;4989481;28;103154;-74
2024/02/03 05:44:43;;;;;;;10.77;7.75;;;;;;;2.31;83.43;99870.88;4986887;28;104402;-74
2024/02/03 05:47:14;;;;;;;11.68;8.55;;;;;;;2.45;81.66;99877.09;5000778;28;103238;-72
2024/02/03 05:49:42;;;;;;;13.48;9.00;;;;;;;2.59;81.80;99871.06;4998353;28;104131;-73
2024/02/03 05:52:10;;;;;;;10.85;7.85;;;;;;;2.68;81.35;99860.06;4973999;28;104146;-73
2024/02/03 05:54:38;;;;;;;11.20;8.02;;;;;;;2.86;83.36;99859.94;4990814;28;104517;-73
2024/02/03 05:57:06;;;;;;;12.02;9.05;;;;;;;3.05;83.56;99870.16;5002656;28;103306;-73
2024/02/03 05:59:34;;;;;;;10.70;7.95;;;;;;;3.12;83.21;99866.25;5006187;28;102641;-73
2024/02/03 06:02:13;;;;;;;10.25;7.32;;;;;;;3.28;83.30;99867.00;5008526;28;103753;-72
2024/02/03 06:04:41;;;;;;;11.63;8.80;;;;;;;3.45;83.00;99868.59;4989097;28;104317;-75
2024/02/03 06:07:09;;;;;;;11.60;8.65;;;;;;;3.52;82.24;99868.22;5010174;28;103192;-73
2024/02/03 06:09:37;;;;;;;12.50;8.68;;;;;;;3.60;82.02;99866.81;5007305;28;103200;-72
2024/02/03 06:12:06;;;;;;;11.13;8.40;;;;;;;3.65;81.54;99861.28;5004216;28;102687;-73
2024/02/03 06:14:35;;;;;;;13.55;7.97;;;;;;;3.70;81.23;99869.72;4991709;28;103720;-73
2024/02/03 06:17:03;;;;;;;14.98;7.95;;;;;;;3.76;81.35;99868.47;4998060;28;103391;-73
2024/02/03 06:19:32;;;;;;;8.48;5.82;;;;;;;3.78;80.79;99864.81;4980875;28;103074;-73
2024/02/03 06:22:00;;;;;;;12.27;7.60;;;;;;;3.84;80.88;99870.63;5001990;28;103779;-73
2024/02/03 06:24:28;;;;;;;8.57;6.50;;;;;;;3.88;81.03;99879.97;4999276;28;102878;-73
2024/02/03 06:26:56;;;;;;;9.63;7.07;;;;;;;3.90;80.71;99873.69;4984574;28;103688;-73
2024/02/03 06:29:24;;;;;;;8.30;5.55;;;;;;;3.96;80.88;99880.34;4985457;28;102892;-73
2024/02/03 06:31:52;;;;;;;11.20;8.40;;;;;;;4.01;80.75;99878.28;4986183;28;104171;-77
2024/02/03 06:34:20;;;;;;;11.18;8.35;;;;;;;4.03;81.11;99883.41;4999176;28;103318;-78
2024/02/03 06:36:49;;;;;;;7.78;5.85;;;;;;;4.07;80.49;99880.50;4988123;28;103300;-78
2024/02/03 06:39:17;;;;;;;7.63;5.50;;;;;;;4.12;80.61;99875.78;5002210;28;103095;-75
2024/02/03 06:41:46;;;;;;;10.88;6.22;;;;;;;4.18;80.61;99878.97;4969391;28;102733;-76
2024/02/03 06:44:14;;;;;;;11.38;7.60;;;;;;;4.24;81.49;99879.41;4993646;28;104127;-75
2024/02/03 06:46:42;;;;;;;10.23;6.10;;;;;;;4.28;81.38;99891.41;5000744;28;103245;-75
2024/02/03 06:49:10;;;;;;;11.68;8.82;;;;;;;4.35;81.79;99894.47;4998550;28;103060;-73
2024/02/03 06:51:38;;;;;;;12.57;7.28;;;;;;;4.41;81.83;99886.19;5002908;28;102807;-73
2024/02/03 06:54:07;;;;;;;10.52;7.63;;;;;;;4.49;82.63;99883.06;4984543;28;103243;-75
2024/02/03 06:56:35;;;;;;;11.32;7.88;;;;;;;4.55;82.61;99885.31;4985791;28;104405;-72
2024/02/03 06:59:03;;;;;;;9.40;6.93;;;;;;;4.60;83.06;99885.03;4984866;28;103056;-73
2024/02/03 07:01:31;;;;;;;12.55;7.38;;;;;;;4.65;83.17;99891.63;4977399;28;103088;-73
2024/02/03 07:03:59;;;;;;;8.45;6.38;;;;;;;4.69;83.31;99887.03;4982943;28;104124;-74
2024/02/03 07:06:27;;;;;;;13.10;9.02;;;;;;;4.79;83.12;99889.88;4991552;28;103375;-74
2024/02/03 07:08:56;;;;;;;13.43;8.73;;;;;;;4.81;83.29;99895.88;4984927;28;102708;-75
2024/02/03 07:11:25;;;;;;;13.77;9.38;;;;;;;4.85;84.04;99897.34;5006561;28;104263;-75
2024/02/03 07:13:53;;;;;;;14.40;9.90;;;;;;;4.92;83.47;99892.53;5005584;28;103306;-75
2024/02/03 07:16:21;;;;;;;13.90;9.90;;;;;;;4.97;83.74;99890.44;5001214;28;103216;-75
2024/02/03 07:18:49;;;;;;;12.40;9.10;;;;;;;4.99;84.31;99891.16;5006800;28;102727;-75
2024/02/03 07:21:17;;;;;;;13.68;9.27;;;;;;;5.03;84.27;99879.53;4996239;28;104046;-75
2024/02/03 07:23:45;;;;;;;13.00;9.45;;;;;;;5.08;83.67;99887.94;5006405;28;103545;-74
2024/02/03 07:26:13;;;;;;;12.55;8.73;;;;;;;5.21;83.33;99892.34;5000388;28;103458;-74
2024/02/03 07:28:42;;;;;;;13.30;8.55;;;;;;;5.31;83.08;99882.91;5007726;28;102714;-75
2024/02/03 07:31:10;;;;;;;10.88;8.25;;;;;;;5.44;82.71;99890.78;5000623;28;104197;-75
2024/02/03 07:33:38;;;;;;;10.55;8.05;;;;;;;5.55;82.21;99884.78;4986122;28;104538;-76
2024/02/03 07:36:07;;;;;;;12.45;8.15;;;;;;;5.72;81.91;99894.94;5006020;28;104196;-75
2024/02/03 07:38:39;;;;;;;12.27;8.68;;;;;;;5.91;81.90;99891.03;4983484;28;103162;-75
2024/02/03 07:41:07;;;;;;;10.90;7.38;;;;;;;6.03;81.19;99884.09;4968591;28;102780;-74
2024/02/03 07:43:35;;;;;;;11.43;8.32;;;;;;;5.98;80.84;99892.31;4994999;28;104208;-74
2024/02/03 07:46:04;;;;;;;9.15;7.38;;;;;;;5.97;80.63;99874.81;4983851;28;103283;-74
2024/02/03 07:48:32;;;;;;;10.50;8.10;;;;;;;6.11;80.45;99887.84;4982413;28;103342;-75
2024/02/03 07:51:00;;;;;;;10.30;7.60;;;;;;;6.17;80.27;99883.09;4986368;28;104068;-75
2024/02/03 07:53:28;;;;;;;12.80;6.68;;;;;;;6.11;80.58;99897.53;4981803;28;104644;-75
2024/02/03 07:55:56;;;;;;;9.45;7.03;;;;;;;6.11;80.23;99893.09;5004852;28;105229;-76
2024/02/03 07:58:24;;;;;;;10.50;7.40;;;;;;;6.12;79.67;99889.53;4986395;28;102732;-75
2024/02/03 08:00:52;;;;;;;9.90;7.22;;;;;;;6.12;79.82;99897.41;4992082;28;103018;-75
2024/02/03 08:03:22;;;;;;;11.35;7.95;;;;;;;6.13;80.02;99895.63;5002837;28;104280;-75
2024/02/03 08:05:50;;;;;;;9.93;6.68;;;;;;;6.15;80.11;99891.09;5003078;28;103293;-73
2024/02/03 08:08:18;;;;;;;8.27;5.70;;;;;;;6.18;79.32;99887.41;5001263;28;102579;-73
2024/02/03 08:10:45;;;;;;;11.13;7.50;;;;;;;6.15;80.08;99888.47;4987161;28;103102;-74
2024/02/03 08:13:14;;;;;;;11.93;8.88;;;;;;;6.17;78.76;99890.97;5006638;28;104164;-74
2024/02/03 08:15:43;;;;;;;11.18;7.13;;;;;;;6.20;79.48;99888.16;5007695;28;102678;-74
2024/02/03 08:18:10;;;;;;;11.18;8.18;;;;;;;6.15;78.73;99885.84;4986962;28;103035;-74
2024/02/03 08:20:40;;;;;;;10.43;7.60;;;;;;;6.16;78.69;99886.66;4976017;28;105307;-75
2024/02/03 08:23:09;;;;;;;9.15;6.20;;;;;;;6.16;78.73;99897.19;4996487;28;104215;-74
2024/02/03 08:25:39;;;;;;;9.63;6.43;;;;;;;6.21;78.53;99892.44;5003270;28;103194;-74
2024/02/03 08:28:10;;;;;;;9.57;6.90;;;;;;;6.26;78.84;99899.06;4983157;28;103075;-75
2024/02/03 08:30:39;;;;;;;9.15;5.85;;;;;;;6.28;78.62;99909.47;5002628;28;103250;-75
2024/02/03 08:33:07;;;;;;;8.32;5.55;;;;;;;6.28;78.69;99904.22;5001852;28;104203;-75
2024/02/03 08:35:41;;;;;;;8.63;5.50;;;;;;;6.28;78.06;99907.66;5000760;28;103802;-75
2024/02/03 08:38:10;;;;;;;11.55;6.28;;;;;;;6.35;78.35;99910.69;4989066;28;103216;-75
2024/02/03 08:40:37;;;;;;;8.80;5.90;;;;;;;6.29;78.47;99912.00;4971300;28;104065;-74
2024/02/03 08:43:05;;;;;;;8.32;6.28;;;;;;;6.28;78.73;99917.38;4981196;28;103922;-74
2024/02/03 08:45:33;;;;;;;8.63;6.15;;;;;;;6.28;79.02;99909.47;5011967;28;103628;-81
2024/02/03 08:48:02;;;;;;;9.82;7.18;;;;;;;6.32;79.11;99913.56;4995501;28;103108;-87
2024/02/03 08:50:30;;;;;;;9.60;6.22;;;;;;;6.24;79.94;99902.75;4985519;28;103804;-78
2024/02/03 08:52:59;;;;;;;8.32;5.70;;;;;;;6.23;79.90;99901.06;5014938;28;104118;-76
2024/02/03 08:55:28;;;;;;;9.90;6.18;;;;;;;6.29;79.93;99903.28;5006877;28;103058;-78
2024/02/03 08:57:56;;;;;;;6.45;4.55;;;;;;;6.34;79.89;99901.16;5013026;28;102721;-78
2024/02/03 09:00:25;;;;;;;5.95;4.30;;;;;;;6.33;79.52;99911.75;4992274;28;104183;-77
2024/02/03 09:02:54;;;;;;;7.55;4.38;;;;;;;6.25;79.69;99910.53;4984666;28;104429;-76
2024/02/03 09:05:22;;;;;;;7.18;3.88;;;;;;;6.27;79.77;99915.69;5004241;28;103241;-76
2024/02/03 09:07:52;;;;;;;5.82;3.72;;;;;;;6.05;81.47;99919.88;5004755;28;102676;-76
2024/02/03 09:10:23;;;;;;;7.68;3.75;;;;;;;6.17;80.68;99922.56;4985219;28;104077;-76
2024/02/03 09:12:51;;;;;;;5.10;2.80;;;;;;;6.16;80.86;99915.59;5009371;28;102885;-81
2024/02/03 09:15:22;;;;;;;5.40;3.47;;;;;;;6.19;80.71;99915.41;5000657;28;103721;-76
2024/02/03 09:17:51;;;;;;;5.70;3.70;;;;;;;6.28;80.22;99914.75;4980736;28;102805;-79
2024/02/03 09:20:19;;;;;;;5.20;3.20;;;;;;;6.29;80.31;99919.06;4988585;28;102733;-77
2024/02/03 09:22:49;;;;;;;5.38;3.75;;;;;;;6.23;80.55;99916.84;4978350;28;102975;-82
2024/02/03 09:25:17;;;;;;;5.78;3.72;;;;;;;6.28;79.89;99905.03;4999916;28;103207;-77
2024/02/03 09:27:46;;;;;;;5.30;3.60;;;;;;;6.16;80.45;99907.72;4994428;27;102761;-78
2024/02/03 09:30:17;;;;;;;4.65;2.97;;;;;;;6.22;80.66;99907.28;4999094;28;102846;-78
2024/02/03 09:32:46;;;;;;;6.68;3.67;;;;;;;6.22;80.35;99904.66;4988902;28;103350;-85
2024/02/03 09:35:14;;;;;;;5.53;3.67;;;;;;;6.28;80.18;99909.47;5011647;28;103187;-84
2024/02/03 09:37:43;;;;;;;6.30;3.90;;;;;;;6.27;79.81;99915.69;4991027;28;102612;-81
2024/02/03 09:40:24;;;;;;;7.00;3.45;;;;;;;6.27;79.77;99916.50;4997269;28;103319;-77
2024/02/03 09:42:58;;;;;;;4.47;2.90;;;;;;;6.30;79.34;99911.03;4982995;28;103061;-81
2024/02/03 09:45:27;;;;;;;3.93;2.53;;;;;;;6.48;79.42;99915.91;4981870;28;103429;-81
2024/02/03 09:47:55;;;;;;;5.80;3.50;;;;;;;6.37;78.59;99913.25;4981606;28;102741;-82
2024/02/03 09:50:23;;;;;;;4.30;2.75;;;;;;;6.45;78.72;99922.25;5011928;28;104146;-82
2024/02/03 09:52:52;;;;;;;3.95;2.50;;;;;;;6.49;78.79;99912.34;5010616;28;104433;-81
2024/02/03 09:55:20;;;;;;;4.95;2.88;;;;;;;6.49;78.28;99917.59;4984221;28;104309;-82
2024/02/03 09:57:51;;;;;;;4.47;3.20;;;;;;;6.45;77.87;99919.59;4984504;28;102716;-82
2024/02/03 10:00:24;;;;;;;5.07;3.15;;;;;;;6.54;77.87;99912.84;4968390;28;104022;-82
2024/02/03 10:02:52;;;;;;;5.18;2.60;;;;;;;6.58;77.96;99902.94;4983164;28;104265;-79
2024/02/03 10:05:28;;;;;;;5.78;3.45;;;;;;;6.57;77.46;99909.16;5000108;28;104089;-83
2024/02/03 10:08:05;;;;;;;6.75;3.97;;;;;;;6.63;77.26;99906.06;4998782;28;102896;-84
2024/02/03 10:10:43;;;;;;;4.45;2.90;;;;;;;6.70;77.18;99902.00;5000877;28;103638;-78
2024/02/03 10:13:20;;;;;;;7.00;3.20;;;;;;;6.80;77.51;99900.38;5001318;28;104291;-81
2024/02/03 10:15:58;;;;;;;4.82;3.38;;;;;;;6.78;76.64;99909.34;5002178;28;103306;-78
2024/02/03 10:18:27;;;;;;;4.53;3.08;;;;;;;6.87;76.84;99902.56;4987523;28;103244;-79
2024/02/03 10:20:56;;;;;;;4.57;2.88;;;;;;;6.99;76.76;99903.44;4973002;28;102886;-81
2024/02/03 10:23:24;;;;;;;4.80;3.20;;;;;;;7.08;76.14;99894.84;4998805;28;103240;-81
2024/02/03 10:25:57;;;;;;;4.78;2.97;;;;;;;6.97;75.79;99893.84;4983420;28;103953;-77
2024/02/03 10:28:25;;;;;;;4.22;2.90;;;;;;;7.10;76.17;99899.03;4987136;28;102756;-85
2024/02/03 10:30:56;;;;;;;6.65;3.97;;;;;;;7.07;75.56;99891.34;5003727;28;102687;-75
2024/02/03 10:33:28;;;;;;;5.53;3.30;;;;;;;6.98;75.55;99894.69;4982601;28;103587;-74
2024/02/03 10:35:57;;;;;;;5.60;3.17;;;;;;;7.21;75.28;99897.38;4983084;28;104101;-80
2024/02/03 10:38:25;;;;;;;5.55;3.78;;;;;;;7.46;74.19;99889.25;5007255;28;102778;-83
2024/02/03 10:40:56;;;;;;;5.72;3.70;;;;;;;7.80;74.12;99886.63;4995727;28;102802;-81
2024/02/03 10:43:31;;;;;;;6.00;3.28;;;;;;;7.93;73.05;99883.03;5010963;28;103254;-82
2024/02/03 10:46:09;;;;;;;5.28;3.42;;;;;;;8.27;71.92;99882.97;4994159;28;104155;-82
2024/02/03 10:48:44;;;;;;;5.18;3.35;;;;;;;8.33;72.43;99877.16;5010163;28;102689;-85
2024/02/03 10:51:20;;;;;;;4.97;3.42;;;;;;;8.33;71.33;99874.53;4987408;28;102799;-84
2024/02/03 10:53:54;;;;;;;5.53;3.75;;;;;;;8.23;71.61;99861.25;4988376;28;104328;-85
2024/02/03 10:56:28;;;;;;;5.55;3.38;;;;;;;8.34;71.36;99867.47;4988385;28;103488;-83
2024/02/03 10:58:56;;;;;;;5.60;3.72;;;;;;;8.58;70.66;99862.84;4986567;28;102772;-83
2024/02/03 11:01:41;;;;;;;6.60;3.40;;;;;;;9.21;69.09;99856.72;4975485;28;102960;-82
2024/02/03 11:04:13;;;;;;;4.85;2.90;;;;;;;9.29;67.91;99858.72;4994157;28;103975;-80
2024/02/03 11:06:45;;;;;;;4.30;2.80;;;;;;;9.18;68.89;99854.31;5014830;28;103242;-83
2024/02/03 11:31:19;;;;;;;2.87;1.80;;;;;;;8.97;65.84;99835.84;5010683;28;102568;-88
2024/02/03 11:33:48;;;;;;;2.53;1.60;;;;;;;9.07;66.37;99834.09;4995504;28;104585;-89
2024/02/03 11:36:22;;;;;;;2.17;1.52;;;;;;;9.16;66.18;99829.84;5004028;28;103170;-89
2024/02/03 11:38:51;;;;;;;2.97;1.70;;;;;;;9.28;66.02;99827.97;4989852;28;102747;-88
2024/02/03 11:41:19;;;;;;;3.58;1.70;;;;;;;9.10;65.90;99831.22;4973911;28;104246;-88
2024/02/03 11:43:49;;;;;;;1.90;1.35;;;;;;;9.29;65.80;99834.94;4999917;28;103852;-88
2024/02/03 11:46:18;;;;;;;2.40;1.50;;;;;;;9.34;64.95;99827.44;4982947;28;104272;-80
2024/02/03 11:48:46;;;;;;;2.10;1.60;;;;;;;9.31;65.20;99837.44;4982683;28;102849;-82
2024/02/03 11:51:16;;;;;;;1.92;1.33;;;;;;;9.27;65.28;99831.56;4979468;28;102716;-79
2024/02/03 11:53:44;;;;;;;1.20;1.10;;;;;;;9.53;64.44;99841.72;4998033;28;102612;-88
2024/02/03 11:56:12;;;;;;;1.08;0.98;;;;;;;9.51;64.32;99833.06;4978443;28;104632;-86
2024/02/03 12:43:24;;;;;;;1.23;1.05;;;;;;;10.10;63.08;99803.13;5001422;28;103099;-88
2024/02/03 12:45:52;;;;;;;1.80;1.30;;;;;;;10.18;62.72;99794.50;4987293;28;102724;-73
2024/02/03 12:48:20;;;;;;;0.90;0.90;;;;;;;10.02;62.60;99800.34;4972300;28;103779;-79